Time;durP1;ratioP1;P1;durP2;ratioP2;P2;SDS_P1;SDS_P2;PMS_P1;PMS_P2;Temp;Humidity;BMP_temperature;BMP_pressure;BME280_temperature;BME280_humidity;BME280_pressure;Samples;Min_cycle;Max_cycle;Signal;HPM_P1;HPM_P2
2022/07/06 00:01:00;;;;;;;5.30;1.90;;;21.50;54.80;;;21.53;64.83;101092.22;4968164;28;20061;-74
2022/07/06 00:03:27;;;;;;;3.22;1.77;;;21.40;55.10;;;21.51;65.32;101080.72;4980920;28;20049;-74
2022/07/06 00:05:55;;;;;;;3.78;1.85;;;21.40;55.30;;;21.46;66.69;101093.50;4981716;28;20488;-74
2022/07/06 00:08:22;;;;;;;3.35;1.85;;;21.30;55.60;;;21.41;67.98;101090.25;4981630;28;20034;-74
2022/07/06 00:10:51;;;;;;;2.85;1.83;;;21.30;55.90;;;21.37;68.36;101091.38;4978561;28;20050;-74
2022/07/06 00:13:18;;;;;;;2.95;1.77;;;21.20;56.00;;;21.33;70.10;101095.19;4980629;28;20058;-74
2022/07/06 00:15:44;;;;;;;4.00;2.90;;;21.20;56.30;;;21.34;68.79;101092.41;4979897;28;20428;-74
2022/07/06 00:18:12;;;;;;;7.38;2.03;;;21.20;56.20;;;21.35;70.52;101090.63;4984817;28;20098;-74
2022/07/06 00:20:39;;;;;;;4.78;1.67;;;21.20;56.60;;;21.28;72.39;101097.25;4982724;28;20046;-74
2022/07/06 00:23:06;;;;;;;5.05;2.13;;;21.10;56.80;;;21.22;73.07;101095.78;4984333;28;20681;-74
2022/07/06 00:25:33;;;;;;;4.28;2.13;;;21.10;57.00;;;21.12;75.62;101095.47;4969048;28;20042;-74
2022/07/06 00:28:00;;;;;;;5.85;2.65;;;21.00;57.40;;;21.12;75.97;101098.13;4984273;28;20038;-75
2022/07/06 00:30:27;;;;;;;5.70;2.38;;;21.00;57.70;;;21.11;75.51;101088.38;4969806;28;20031;-75
2022/07/06 00:32:58;;;;;;;4.65;1.85;;;20.90;57.80;;;21.10;76.89;101098.25;4983853;28;20044;-74
2022/07/06 00:35:25;;;;;;;4.78;2.08;;;20.90;58.20;;;20.94;80.42;101100.91;4986231;28;20149;-74
2022/07/06 00:37:53;;;;;;;5.20;2.25;;;20.80;58.70;;;20.91;81.43;101098.41;4972331;28;20061;-74
2022/07/06 00:40:21;;;;;;;4.13;2.58;;;20.80;59.00;;;20.80;83.99;101104.38;4961643;28;20065;-73
2022/07/06 00:42:49;;;;;;;5.47;2.60;;;20.70;59.40;;;20.79;84.50;101105.28;4984180;28;20046;-74
2022/07/06 00:45:17;;;;;;;4.80;2.47;;;20.70;59.70;;;20.77;87.05;101108.97;4982900;28;20041;-74
2022/07/06 00:47:46;;;;;;;4.47;2.03;;;20.60;60.20;;;20.75;86.80;101105.53;4979052;28;20034;-74
2022/07/06 00:50:22;;;;;;;4.78;2.28;;;20.60;60.40;;;20.70;87.04;101108.44;4981068;28;20058;-74
2022/07/06 00:52:53;;;;;;;5.00;2.00;;;20.50;60.50;;;20.71;88.22;101114.69;4971037;28;20054;-75
2022/07/06 00:55:24;;;;;;;8.05;2.60;;;20.50;61.20;;;20.66;89.23;101107.75;4984092;28;20072;-73
2022/07/06 00:57:53;;;;;;;4.07;2.60;;;20.50;61.60;;;20.59;90.90;101109.06;4969942;28;20069;-74
2022/07/06 01:00:25;;;;;;;4.75;2.75;;;20.50;62.00;;;20.57;91.20;101110.94;4970138;28;20046;-74
2022/07/06 01:02:53;;;;;;;4.60;2.50;;;20.40;62.20;;;20.53;92.89;101115.59;4981433;28;20042;-74
2022/07/06 01:05:21;;;;;;;6.13;2.63;;;20.60;63.10;;;20.53;92.58;101106.72;4966414;28;20097;-74
2022/07/06 01:07:50;;;;;;;3.13;2.50;;;20.30;63.30;;;20.50;92.72;101109.53;4970905;28;20065;-74
2022/07/06 01:10:20;;;;;;;4.93;2.72;;;20.30;63.60;;;20.49;94.51;101107.81;4969708;28;20648;-74
2022/07/06 01:12:48;;;;;;;4.67;2.40;;;20.20;64.40;;;20.46;95.30;101110.66;4984791;28;20088;-74
2022/07/06 01:15:20;;;;;;;6.05;2.67;;;20.30;65.00;;;20.43;95.63;101110.81;4984647;28;20048;-74
2022/07/06 01:17:47;;;;;;;3.45;2.55;;;20.20;65.60;;;20.43;96.46;101108.16;4981138;28;20050;-74
2022/07/06 01:20:19;;;;;;;4.72;2.45;;;20.30;66.40;;;20.39;97.61;101111.00;4968910;28;20050;-73
2022/07/06 01:22:48;;;;;;;7.15;2.20;;;20.20;67.10;;;20.36;98.28;101104.94;4986004;28;20053;-74
2022/07/06 01:25:16;;;;;;;8.20;2.60;;;20.30;68.00;;;20.26;99.89;101112.59;4971120;28;20043;-74
2022/07/06 01:27:43;;;;;;;4.85;2.72;;;20.10;68.70;;;20.20;100.00;101115.56;4976066;28;20039;-74
2022/07/06 01:30:14;;;;;;;3.15;2.75;;;20.10;69.80;;;20.22;99.02;101103.03;4982921;28;20034;-74
2022/07/06 01:32:42;;;;;;;3.17;2.17;;;20.10;69.90;;;20.19;100.00;101108.50;4983581;28;20056;-74
2022/07/06 01:35:12;;;;;;;5.90;2.53;;;20.00;70.90;;;20.20;100.00;101102.22;4983276;28;20042;-74
2022/07/06 01:37:40;;;;;;;;;;;20.00;72.10;;;20.14;100.00;101100.75;4986428;28;20050;-74
2022/07/06 01:40:10;;;;;;;3.72;2.58;;;20.00;73.20;;;20.01;100.00;101099.66;4980586;28;19929;-74
2022/07/06 01:42:39;;;;;;;;;;;19.90;74.10;;;20.08;100.00;101103.72;4984876;28;20054;-74
2022/07/06 01:45:07;;;;;;;3.78;2.38;;;19.90;75.10;;;20.05;100.00;101102.06;4984057;28;19972;-74
2022/07/06 01:47:35;;;;;;;3.97;2.35;;;19.90;75.80;;;20.02;100.00;101106.75;4986828;28;20795;-74
2022/07/06 01:50:07;;;;;;;3.03;2.30;;;19.90;76.30;;;19.91;100.00;101105.44;4985697;28;20496;-74
2022/07/06 01:52:38;;;;;;;5.13;2.55;;;19.80;77.70;;;19.85;100.00;101103.09;4980396;28;20042;-75
2022/07/06 01:55:06;;;;;;;4.13;2.53;;;19.80;78.60;;;19.88;100.00;101113.63;4976624;28;20043;-74
2022/07/06 01:57:35;;;;;;;4.07;2.30;;;19.70;79.10;;;19.76;100.00;101095.56;4954455;28;20039;-74
2022/07/06 02:00:07;;;;;;;4.97;2.50;;;19.70;80.30;;;19.76;100.00;101101.78;4960622;28;20299;-74
2022/07/06 02:02:43;;;;;;;5.00;2.47;;;19.70;80.70;;;19.73;100.00;101109.91;4984127;28;20049;-74
2022/07/06 02:05:11;;;;;;;4.68;2.60;;;19.60;81.20;;;19.68;100.00;101115.50;4982458;28;20440;-74
2022/07/06 02:07:38;;;;;;;4.22;2.50;;;19.60;82.50;;;19.76;100.00;101115.13;4968132;28;20093;-74
2022/07/06 02:10:08;;;;;;;4.72;2.50;;;19.50;82.60;;;19.70;100.00;101120.75;4969121;28;20109;-74
2022/07/06 02:12:35;;;;;;;3.50;2.20;;;19.50;82.90;;;19.68;100.00;101115.50;4982814;28;20117;-74
2022/07/06 02:15:02;;;;;;;3.03;2.17;;;19.50;83.80;;;19.59;100.00;101109.75;4980331;28;20041;-74
2022/07/06 02:17:29;;;;;;;4.10;2.22;;;19.50;84.70;;;19.61;100.00;101114.06;4976565;28;20404;-74
2022/07/06 02:19:56;;;;;;;4.28;2.67;;;19.40;85.10;;;19.55;100.00;101112.56;5000416;28;20049;-73
2022/07/06 02:22:23;;;;;;;9.43;3.15;;;19.40;85.60;;;19.45;100.00;101116.66;4981491;28;20109;-74
2022/07/06 02:24:50;;;;;;;3.45;2.40;;;19.40;86.50;;;19.49;100.00;101110.22;4975405;28;20042;-74
2022/07/06 02:27:18;;;;;;;5.60;2.63;;;19.40;87.00;;;19.44;100.00;101108.72;4985673;28;20217;-74
2022/07/06 02:29:46;;;;;;;5.03;2.58;;;19.30;87.00;;;19.39;100.00;101109.81;4982810;28;20133;-74
2022/07/06 02:32:13;;;;;;;6.40;2.58;;;19.30;87.70;;;19.35;100.00;101110.03;4982728;28;20049;-74
2022/07/06 02:34:40;;;;;;;2.97;2.47;;;19.30;88.00;;;19.28;100.00;101106.81;4984781;28;20385;-74
2022/07/06 02:37:07;;;;;;;4.43;3.00;;;19.20;88.20;;;19.32;100.00;101115.53;4984978;28;20681;-74
2022/07/06 02:39:35;;;;;;;3.40;2.33;;;19.30;89.00;;;19.37;100.00;101114.38;4968635;28;20042;-74
2022/07/06 02:42:03;;;;;;;4.88;2.45;;;19.20;89.00;;;19.25;100.00;101110.47;4967311;28;20066;-74
2022/07/06 02:44:31;;;;;;;3.88;2.72;;;19.20;89.20;;;19.31;100.00;101113.81;4985281;28;20038;-74
2022/07/06 02:46:58;;;;;;;3.70;2.17;;;19.30;90.00;;;19.21;100.00;101118.72;4966618;28;20523;-74
2022/07/06 02:49:26;;;;;;;5.43;2.20;;;19.10;90.00;;;19.22;100.00;101123.97;4964687;28;20061;-73
2022/07/06 02:51:53;;;;;;;4.50;2.35;;;19.10;90.00;;;19.20;100.00;101122.31;4984523;28;20050;-74
2022/07/06 02:54:21;;;;;;;3.45;2.28;;;19.00;89.60;;;19.21;100.00;101124.06;4967725;28;21332;-74
2022/07/06 02:56:52;;;;;;;5.78;2.40;;;19.00;90.10;;;19.15;100.00;101135.88;4993641;28;20050;-74
2022/07/06 02:59:20;;;;;;;7.32;2.20;;;19.00;90.20;;;19.10;100.00;101136.09;4984353;28;20101;-74
2022/07/06 03:01:48;;;;;;;6.03;2.30;;;18.90;90.50;;;19.03;100.00;101137.31;4966331;28;20046;-74
2022/07/06 03:04:16;;;;;;;4.38;2.15;;;19.10;90.10;;;18.99;100.00;101136.63;4983188;28;20035;-74
2022/07/06 03:06:44;;;;;;;4.95;2.88;;;18.90;90.30;;;19.02;100.00;101138.25;4983946;28;20092;-73
2022/07/06 03:09:11;;;;;;;3.70;2.10;;;18.90;90.40;;;19.03;100.00;101139.97;4980290;28;21322;-74
2022/07/06 03:11:39;;;;;;;3.45;2.28;;;18.90;90.50;;;18.92;100.00;101137.81;4977122;28;20042;-74
2022/07/06 03:14:08;;;;;;;4.15;2.47;;;18.90;90.50;;;18.98;100.00;101137.53;4967701;28;20565;-75
2022/07/06 03:16:37;;;;;;;4.57;2.10;;;18.80;90.20;;;18.93;100.00;101138.69;4967559;28;20085;-73
2022/07/06 03:19:04;;;;;;;3.45;2.28;;;19.80;90.80;;;18.91;100.00;101157.41;4966590;28;20046;-74
2022/07/06 03:21:32;;;;;;;4.15;2.45;;;18.80;90.60;;;18.80;100.00;101152.56;4982411;28;20047;-73
2022/07/06 03:24:01;;;;;;;5.47;2.72;;;18.70;90.70;;;18.80;100.00;101157.91;4983189;28;20105;-75
2022/07/06 03:26:29;;;;;;;4.63;2.30;;;18.70;90.60;;;18.75;100.00;101157.25;4966780;28;20074;-76
2022/07/06 03:28:57;;;;;;;4.53;2.15;;;18.70;90.90;;;18.71;100.00;101167.19;4983268;28;20040;-74
2022/07/06 03:31:24;;;;;;;5.75;2.00;;;18.60;90.90;;;18.59;100.00;101170.41;4982947;28;20050;-75
2022/07/06 03:33:52;;;;;;;6.50;2.60;;;18.60;90.90;;;18.50;100.00;101163.69;4982816;28;20058;-74
2022/07/06 03:36:19;;;;;;;6.40;2.10;;;18.50;91.30;;;18.55;100.00;101160.81;4981217;28;20113;-73
2022/07/06 03:38:47;;;;;;;5.20;1.95;;;18.50;91.20;;;18.52;100.00;101160.97;4981065;28;20038;-74
2022/07/06 03:41:14;;;;;;;2.92;1.77;;;18.50;91.40;;;18.56;100.00;101155.41;4971640;28;20055;-75
2022/07/06 03:43:41;;;;;;;5.05;2.13;;;18.60;91.40;;;18.59;100.00;101158.91;4962649;28;20564;-75
2022/07/06 03:46:08;;;;;;;3.92;2.08;;;19.30;91.50;;;18.56;100.00;101166.06;4962444;28;20054;-74
2022/07/06 03:48:36;;;;;;;3.53;2.50;;;18.40;91.40;;;18.52;100.00;101161.81;4964027;28;20066;-76
2022/07/06 03:51:06;;;;;;;4.60;2.58;;;18.40;91.60;;;18.45;100.00;101168.38;4979545;28;20416;-75
2022/07/06 03:53:33;;;;;;;4.35;2.30;;;18.40;91.70;;;18.40;100.00;101159.69;4979264;28;20053;-74
2022/07/06 03:58:46;;;;;;;5.45;2.00;;;18.40;91.60;;;18.55;100.00;101160.81;4981865;28;20077;-76
2022/07/06 04:01:13;;;;;;;3.92;2.03;;;18.40;91.70;;;18.54;100.00;101164.44;4962199;28;20081;-75
2022/07/06 04:03:41;;;;;;;5.68;2.30;;;18.40;91.70;;;18.59;100.00;101166.91;4999306;28;20051;-74
2022/07/06 04:06:08;;;;;;;3.30;1.90;;;18.40;91.50;;;18.59;100.00;101169.56;4983410;28;20533;-75
2022/07/06 04:08:36;;;;;;;4.82;2.20;;;18.40;91.40;;;18.55;100.00;101164.34;4994987;28;20423;-76
2022/07/06 04:11:03;;;;;;;3.38;2.10;;;18.40;91.40;;;18.53;100.00;101163.53;4970271;28;20054;-76
2022/07/06 04:13:31;;;;;;;4.65;2.15;;;18.50;91.40;;;18.50;100.00;101158.38;4969480;28;20053;-76
2022/07/06 04:16:00;;;;;;;4.55;1.88;;;18.50;91.40;;;18.57;100.00;101164.28;4973411;28;20081;-76
2022/07/06 04:18:27;;;;;;;7.43;2.70;;;18.50;91.40;;;18.56;100.00;101171.41;4971315;28;20093;-75
2022/07/06 04:20:57;;;;;;;4.20;2.38;;;18.50;91.30;;;18.54;100.00;101170.59;4965626;28;20042;-76
2022/07/06 04:23:25;;;;;;;3.72;2.00;;;18.40;91.30;;;18.54;100.00;101172.44;4970852;28;20046;-76
2022/07/06 04:25:54;;;;;;;4.10;2.00;;;18.50;91.40;;;18.56;100.00;101174.06;4970796;28;20034;-75
2022/07/06 04:28:23;;;;;;;6.90;2.20;;;18.40;91.40;;;18.61;100.00;101173.88;4981491;28;20089;-75
2022/07/06 04:30:51;;;;;;;3.65;1.63;;;18.50;91.30;;;18.65;100.00;101175.44;4965679;28;20869;-75
2022/07/06 04:33:21;;;;;;;;;;;18.50;91.30;;;18.75;100.00;101178.59;4973788;28;20928;-75
2022/07/06 04:35:49;;;;;;;3.55;1.90;;;18.50;91.30;;;18.66;100.00;101189.66;4971451;28;20517;-76
2022/07/06 04:38:18;;;;;;;7.00;2.30;;;18.50;91.30;;;18.61;100.00;101184.53;4954400;28;20050;-76
2022/07/06 04:40:47;;;;;;;3.25;1.88;;;18.50;91.30;;;18.60;100.00;101179.28;4996886;28;20050;-74
2022/07/06 04:43:17;;;;;;;3.65;2.22;;;18.50;91.30;;;18.62;100.00;101194.25;4969665;28;20053;-75
2022/07/06 04:45:44;;;;;;;4.53;2.25;;;18.60;91.20;;;18.60;100.00;101193.44;4972492;28;20066;-75
2022/07/06 04:48:11;;;;;;;1.70;1.55;;;18.50;91.30;;;18.66;100.00;101184.31;4992942;28;20073;-75
2022/07/06 04:50:38;;;;;;;5.10;2.20;;;18.50;91.30;;;18.69;100.00;101190.38;4973987;28;20145;-76
2022/07/06 04:53:11;;;;;;;6.03;2.13;;;18.50;91.30;;;18.71;100.00;101198.28;4960886;28;20066;-75
2022/07/06 04:55:38;;;;;;;2.97;2.05;;;18.50;91.30;;;18.67;100.00;101199.38;4959338;28;20053;-75
2022/07/06 04:58:06;;;;;;;6.85;1.85;;;18.60;91.30;;;18.73;100.00;101198.25;4986222;28;20607;-75
2022/07/06 05:00:33;;;;;;;3.65;2.05;;;18.60;91.20;;;18.70;100.00;101200.13;4969483;28;20613;-76
2022/07/06 05:03:02;;;;;;;5.00;2.10;;;18.60;91.30;;;18.67;100.00;101205.59;4981018;28;20431;-75
2022/07/06 05:05:29;;;;;;;4.22;2.03;;;18.60;91.30;;;18.64;100.00;101215.50;4988069;28;20038;-75
2022/07/06 05:07:57;;;;;;;7.47;2.70;;;18.60;91.20;;;18.66;100.00;101213.63;4973172;28;20050;-75
2022/07/06 05:10:25;;;;;;;6.20;2.15;;;18.80;91.20;;;18.69;100.00;101216.16;4983930;28;20496;-75
2022/07/06 05:12:55;;;;;;;4.55;2.83;;;18.60;91.20;;;18.63;100.00;101211.97;4980095;28;20112;-75
2022/07/06 05:15:24;;;;;;;5.28;2.08;;;18.60;91.20;;;18.57;100.00;101222.91;4997073;28;20089;-76
2022/07/06 05:17:51;;;;;;;6.03;2.20;;;18.50;91.20;;;18.56;100.00;101215.84;4984632;28;20105;-75
2022/07/06 05:20:18;;;;;;;5.28;2.25;;;18.50;91.20;;;18.49;100.00;101220.59;4956001;28;20151;-76
2022/07/06 05:22:47;;;;;;;3.97;2.17;;;18.50;91.20;;;18.50;100.00;101222.31;4988554;28;20146;-75
2022/07/06 05:25:18;;;;;;;4.57;2.17;;;18.40;91.20;;;18.53;100.00;101222.16;4956175;28;20626;-75
2022/07/06 05:27:46;;;;;;;2.95;1.65;;;18.50;91.30;;;18.52;100.00;101225.78;4967027;28;20100;-75
2022/07/06 05:30:15;;;;;;;4.38;2.20;;;18.50;91.40;;;18.47;100.00;101221.56;4968258;28;20050;-75
2022/07/06 05:32:43;;;;;;;4.07;2.20;;;18.50;91.50;;;18.50;100.00;101230.31;4983290;28;20141;-76
2022/07/06 05:35:10;;;;;;;3.25;2.00;;;18.50;91.40;;;18.57;100.00;101228.25;4984704;28;20587;-76
2022/07/06 05:37:58;;;;;;;3.30;2.03;;;18.40;91.40;;;18.55;100.00;101232.78;4985143;28;20722;-75
2022/07/06 05:40:26;;;;;;;4.45;2.30;;;18.40;91.50;;;18.59;100.00;101223.72;4974932;28;20051;-76
2022/07/06 05:42:54;;;;;;;3.72;2.20;;;18.40;91.50;;;18.58;100.00;101229.97;4981572;28;20069;-75
2022/07/06 05:45:22;;;;;;;3.53;2.20;;;18.50;91.60;;;18.55;100.00;101228.28;4968769;28;20046;-76
2022/07/06 05:50:51;;;;;;;5.63;2.25;;;18.50;91.80;;;18.53;100.00;101229.31;4968804;28;20042;-76
2022/07/06 05:53:18;;;;;;;7.05;2.45;;;18.40;91.70;;;18.59;100.00;101231.69;4984027;28;20556;-75
2022/07/06 05:55:50;;;;;;;5.72;2.50;;;19.00;92.10;;;18.66;100.00;101233.19;4984031;28;20218;-75
2022/07/06 05:58:19;;;;;;;5.03;2.50;;;18.20;91.70;;;18.72;100.00;101248.00;4981318;28;20426;-75
2022/07/06 06:00:46;;;;;;;5.95;3.10;;;18.50;91.80;;;18.69;100.00;101243.69;4997953;28;20047;-75
2022/07/06 06:03:17;;;;;;;7.53;3.10;;;18.50;91.50;;;18.73;100.00;101246.22;4961320;28;20052;-75
2022/07/06 06:05:47;;;;;;;6.55;3.30;;;18.50;91.60;;;18.84;100.00;101244.81;4969447;28;20042;-75
2022/07/06 06:08:16;;;;;;;7.55;2.72;;;19.10;91.70;;;18.83;100.00;101247.56;4984932;28;20048;-75
2022/07/06 06:10:46;;;;;;;5.78;2.83;;;18.60;91.80;;;18.89;100.00;101241.94;4967695;28;20090;-75
2022/07/06 06:13:17;;;;;;;6.32;2.83;;;18.70;91.60;;;18.83;100.00;101258.22;4981527;28;20125;-75
2022/07/06 06:15:47;;;;;;;7.10;2.97;;;18.70;91.70;;;18.85;100.00;101246.53;4983474;28;20042;-76
2022/07/06 06:18:17;;;;;;;4.68;2.90;;;18.80;91.40;;;18.82;100.00;101243.16;4983838;28;20527;-77
2022/07/06 06:20:45;;;;;;;5.10;2.60;;;18.80;91.30;;;18.89;100.00;101247.25;4980569;28;20164;-75
2022/07/06 06:23:12;;;;;;;6.75;3.22;;;18.70;91.40;;;18.85;100.00;101248.34;4980410;28;20046;-75
2022/07/06 06:25:57;;;;;;;6.88;2.72;;;18.80;91.20;;;18.89;100.00;101249.06;4982558;28;20044;-75
2022/07/06 06:28:24;;;;;;;7.45;3.13;;;18.80;91.20;;;18.92;100.00;101251.59;4966173;28;20054;-75
2022/07/06 06:30:51;;;;;;;6.32;3.50;;;18.80;91.40;;;18.96;100.00;101254.03;4979946;28;20050;-74
2022/07/06 06:33:20;;;;;;;5.85;3.53;;;18.80;91.40;;;19.01;100.00;101250.34;4982779;28;20046;-75
2022/07/06 06:35:53;;;;;;;8.10;3.47;;;18.80;91.30;;;19.06;100.00;101267.00;4983473;28;20046;-78
2022/07/06 06:38:25;;;;;;;6.53;3.15;;;18.80;91.10;;;19.05;100.00;101260.81;4965317;28;20050;-76
2022/07/06 06:40:54;;;;;;;5.97;2.58;;;18.90;91.10;;;19.13;100.00;101255.97;4980589;28;20049;-77
2022/07/06 06:43:24;;;;;;;7.65;2.88;;;18.90;91.30;;;19.18;100.00;101257.56;4980776;28;20482;-74
2022/07/06 06:46:07;;;;;;;5.70;2.90;;;19.00;91.10;;;19.15;100.00;101261.25;4970735;28;20500;-75
2022/07/06 06:48:34;;;;;;;6.28;2.75;;;19.00;91.10;;;19.16;100.00;101262.09;4980539;28;20444;-75
2022/07/06 06:51:01;;;;;;;12.15;3.78;;;19.00;91.10;;;19.10;100.00;101264.13;4981466;28;20492;-75
2022/07/06 06:53:28;;;;;;;3.85;2.45;;;19.00;90.80;;;19.17;100.00;101261.16;4978555;28;20046;-75
2022/07/06 06:55:55;;;;;;;4.18;2.80;;;19.00;91.00;;;19.21;100.00;101255.63;4980584;28;20048;-75
2022/07/06 06:58:22;;;;;;;16.65;3.22;;;19.00;90.80;;;19.23;100.00;101260.91;4982243;28;20038;-75
2022/07/06 07:00:49;;;;;;;6.18;3.05;;;19.10;90.80;;;19.27;100.00;101257.16;4980447;28;20050;-77
2022/07/06 07:03:16;;;;;;;6.90;3.20;;;19.10;90.80;;;19.38;100.00;101261.97;4964742;28;20707;-74
2022/07/06 07:05:43;;;;;;;4.55;3.50;;;19.10;90.80;;;19.37;100.00;101268.25;4983056;28;20049;-76
2022/07/06 07:08:10;;;;;;;6.00;3.25;;;19.20;90.60;;;19.43;100.00;101270.63;4965045;28;20053;-75
2022/07/06 07:10:37;;;;;;;6.70;3.10;;;19.20;90.50;;;19.48;100.00;101268.63;4966908;28;20061;-75
2022/07/06 07:13:04;;;;;;;5.07;2.70;;;19.30;90.50;;;19.53;100.00;101271.06;4982079;28;20656;-74
2022/07/06 07:15:32;;;;;;;6.57;3.03;;;19.30;90.50;;;19.55;100.00;101263.84;4967698;28;21290;-75
2022/07/06 07:17:59;;;;;;;6.15;3.00;;;19.30;90.40;;;19.59;100.00;101275.22;4980476;28;20050;-77
2022/07/06 07:20:26;;;;;;;16.48;3.88;;;19.40;90.40;;;19.63;100.00;101271.50;4966070;28;20139;-76
2022/07/06 07:23:05;;;;;;;4.78;3.30;;;19.40;90.40;;;19.60;100.00;101274.31;4980125;28;20456;-76
2022/07/06 07:25:32;;;;;;;7.20;3.80;;;19.40;90.40;;;19.64;100.00;101278.56;4968847;28;20125;-77
2022/07/06 07:27:59;;;;;;;6.53;2.80;;;19.50;90.40;;;19.74;100.00;101270.97;4983774;28;20046;-76
2022/07/06 07:30:26;;;;;;;6.90;3.22;;;19.50;90.40;;;19.83;100.00;101274.06;4986366;28;20038;-76
2022/07/06 07:32:55;;;;;;;4.63;3.20;;;19.50;90.30;;;19.88;100.00;101278.31;4988093;28;20057;-76
2022/07/06 07:35:23;;;;;;;6.73;3.93;;;19.60;90.40;;;20.02;100.00;101269.66;4985948;28;20034;-76
2022/07/06 07:37:50;;;;;;;6.40;3.97;;;19.60;90.30;;;19.97;100.00;101268.06;4979916;28;20078;-75
2022/07/06 07:40:17;;;;;;;6.60;4.43;;;19.70;90.00;;;20.03;100.00;101266.91;4979864;28;20473;-75
2022/07/06 07:42:45;;;;;;;6.07;3.70;;;19.80;90.00;;;20.06;98.96;101263.22;4985904;28;20580;-76
2022/07/06 07:45:12;;;;;;;7.25;3.50;;;19.30;89.20;;;20.14;97.96;101263.72;4983280;28;20042;-76
2022/07/06 07:47:39;;;;;;;5.70;3.63;;;19.80;89.20;;;20.19;100.00;101258.13;4986672;28;20049;-76
2022/07/06 07:50:07;;;;;;;7.18;3.30;;;19.90;90.00;;;20.25;100.00;101265.84;4985726;28;20038;-76
2022/07/06 07:52:35;;;;;;;5.35;3.55;;;19.90;89.80;;;20.34;98.42;101259.16;4985198;28;20704;-75
2022/07/06 07:55:02;;;;;;;5.47;3.50;;;20.00;89.20;;;20.40;95.28;101261.50;4984314;28;20408;-77
2022/07/06 07:57:49;;;;;;;8.02;3.42;;;20.10;88.60;;;20.48;95.54;101262.00;4986024;28;20050;-76
2022/07/06 08:00:16;;;;;;;5.65;3.60;;;20.20;88.50;;;20.48;93.67;101253.97;4984123;28;20123;-76
2022/07/06 08:02:43;;;;;;;8.98;3.85;;;20.30;87.90;;;20.50;94.15;101252.09;4971376;28;20077;-76
2022/07/06 08:05:13;;;;;;;9.65;4.47;;;20.30;87.90;;;20.55;93.17;101259.88;4970803;28;20046;-76
2022/07/06 08:07:40;;;;;;;;;;;20.30;87.60;;;20.61;90.62;101253.34;4985107;28;20042;-76
2022/07/06 08:10:09;;;;;;;7.80;3.50;;;20.30;87.00;;;20.61;93.75;101256.84;4981278;28;19980;-77
2022/07/06 08:12:37;;;;;;;10.50;3.70;;;20.40;87.70;;;20.76;92.23;101265.03;4984883;28;20069;-77
2022/07/06 08:15:11;;;;;;;5.05;2.78;;;20.40;87.50;;;20.80;92.83;101272.84;4985761;28;20038;-76
2022/07/06 08:17:39;;;;;;;9.95;3.58;;;20.50;87.40;;;20.79;91.35;101260.38;4986975;28;20077;-77
2022/07/06 08:20:07;;;;;;;5.65;4.18;;;20.60;87.00;;;20.77;92.48;101256.94;4988252;28;20042;-76
2022/07/06 08:22:38;;;;;;;4.22;2.95;;;20.60;87.20;;;20.83;93.39;101256.63;4986902;28;20388;-76
2022/07/06 08:25:06;;;;;;;11.38;3.47;;;20.60;87.50;;;20.90;92.43;101265.19;4987759;28;20542;-76
2022/07/06 08:27:33;;;;;;;4.72;3.63;;;20.60;87.30;;;20.91;87.54;101258.88;4981823;28;20423;-76
2022/07/06 08:30:01;;;;;;;4.70;3.13;;;20.70;86.10;;;21.05;88.10;101251.94;4987095;28;20492;-76
2022/07/06 08:32:28;;;;;;;5.75;3.25;;;20.70;86.20;;;21.15;86.36;101266.56;4986636;28;20043;-76
2022/07/06 08:35:15;;;;;;;7.38;3.55;;;20.80;86.10;;;21.27;83.23;101262.31;4979176;28;20093;-76
2022/07/06 08:37:43;;;;;;;4.35;3.67;;;20.90;85.40;;;21.25;82.51;101259.72;4985057;28;20045;-75
2022/07/06 08:40:10;;;;;;;7.53;3.47;;;20.90;85.20;;;21.30;84.56;101255.91;4983016;28;21515;-76
2022/07/06 08:42:37;;;;;;;5.97;3.10;;;21.00;85.40;;;21.38;85.50;101261.72;4985850;28;20046;-76
2022/07/06 08:45:07;;;;;;;6.07;3.03;;;21.00;85.50;;;21.44;84.48;101253.34;4973378;28;20133;-76
2022/07/06 08:47:37;;;;;;;7.93;3.38;;;21.10;85.60;;;21.47;83.54;101257.66;4984768;28;20066;-76
2022/07/06 08:50:05;;;;;;;6.55;3.13;;;21.20;85.10;;;21.52;84.54;101272.53;4973264;28;20085;-76
2022/07/06 08:52:33;;;;;;;6.38;2.80;;;21.20;85.30;;;21.86;81.32;101266.25;4982670;28;20051;-76
2022/07/06 08:55:03;;;;;;;6.28;3.50;;;21.30;85.10;;;21.60;77.28;101265.88;4982904;28;20567;-76
2022/07/06 08:57:30;;;;;;;4.93;3.50;;;21.40;83.30;;;21.42;78.74;101259.75;4986277;28;20582;-77
2022/07/06 08:59:57;;;;;;;4.72;3.10;;;21.30;83.10;;;21.33;76.08;101279.88;4948668;28;20443;-77
2022/07/06 09:02:27;;;;;;;8.77;3.47;;;21.20;82.50;;;21.28;77.33;101268.53;4957401;28;20502;-77
2022/07/06 09:04:57;;;;;;;3.67;3.33;;;21.10;82.70;;;21.35;76.82;101277.97;4964537;28;20472;-76
2022/07/06 09:07:28;;;;;;;7.40;3.30;;;21.10;82.70;;;21.44;77.09;101282.78;4947070;28;20070;-77
2022/07/06 09:10:19;;;;;;;5.30;3.75;;;21.20;83.00;;;21.46;75.53;101282.72;4944019;28;20125;-77
2022/07/06 09:12:46;;;;;;;4.72;3.25;;;21.20;82.60;;;21.52;72.51;101283.25;4941711;28;20140;-77
2022/07/06 09:15:14;;;;;;;6.47;3.60;;;21.20;81.80;;;21.49;70.84;101278.06;4955449;28;20090;-77
2022/07/06 09:17:43;;;;;;;6.97;2.90;;;21.30;81.30;;;21.47;73.08;101276.41;4954272;28;20055;-77
2022/07/06 09:20:13;;;;;;;6.25;3.10;;;21.20;81.70;;;21.65;73.78;101272.72;4957154;28;20061;-77
2022/07/06 09:22:41;;;;;;;5.10;2.45;;;21.30;82.10;;;21.64;70.90;101275.47;4956042;28;20051;-78
2022/07/06 09:25:15;;;;;;;10.75;3.22;;;21.40;81.30;;;21.78;67.61;101266.69;4952983;28;20220;-77
2022/07/06 09:27:49;;;;;;;6.43;2.80;;;21.40;80.50;;;21.75;67.25;101281.09;4954765;28;20550;-78
2022/07/06 09:30:17;;;;;;;6.97;2.63;;;21.50;80.20;;;21.77;65.29;101271.16;4944304;28;20074;-77
2022/07/06 09:32:47;;;;;;;8.43;3.22;;;21.50;79.80;;;21.99;66.68;101280.66;4972123;28;20072;-77
2022/07/06 09:35:30;;;;;;;6.05;2.72;;;21.60;80.30;;;21.92;65.02;101272.09;4984016;28;20054;-77
2022/07/06 09:38:02;;;;;;;7.70;2.50;;;21.70;79.60;;;22.06;64.92;101291.88;4984914;28;20054;-77
2022/07/06 09:40:32;;;;;;;9.65;2.70;;;21.70;79.40;;;22.01;62.57;101283.22;4982434;28;20138;-77
2022/07/06 09:43:12;;;;;;;4.22;2.88;;;21.70;78.50;;;22.08;61.66;101268.53;4979100;28;20500;-78
2022/07/06 09:45:42;;;;;;;;;;;21.80;78.20;;;22.29;60.65;101271.78;4988614;28;20097;-77
2022/07/06 09:48:15;;;;;;;7.00;2.47;;;21.80;78.40;;;22.29;60.80;101273.56;4984729;28;19965;-77
2022/07/06 09:50:47;;;;;;;4.60;2.08;;;21.90;78.20;;;22.46;59.60;101280.63;4986602;28;20045;-78
2022/07/06 09:53:15;;;;;;;5.63;2.40;;;22.00;77.70;;;22.58;58.01;101273.69;4986668;28;20043;-77
2022/07/06 09:55:48;;;;;;;4.82;2.60;;;22.10;77.10;;;22.48;57.14;101276.06;4986759;28;20046;-78
2022/07/06 09:58:16;;;;;;;5.07;2.08;;;22.20;76.50;;;22.65;57.23;101273.22;4971292;28;20432;-77
2022/07/06 10:00:46;;;;;;;4.22;2.25;;;22.20;76.70;;;22.71;56.52;101280.03;4963494;28;20054;-77
2022/07/06 10:03:15;;;;;;;5.35;3.13;;;22.30;76.40;;;22.50;53.35;101274.16;4984184;28;20157;-78
2022/07/06 10:05:46;;;;;;;5.18;2.47;;;22.30;74.40;;;22.58;54.95;101276.38;4984265;28;20056;-78
2022/07/06 10:08:15;;;;;;;4.50;2.72;;;22.30;75.40;;;22.64;54.20;101278.69;4998679;28;20057;-78
2022/07/06 10:10:44;;;;;;;5.63;1.75;;;22.30;74.80;;;22.74;54.54;101279.84;4988248;28;20403;-78
2022/07/06 10:13:11;;;;;;;5.15;1.92;;;22.40;75.10;;;22.95;54.94;101285.72;4982692;28;20047;-79
2022/07/06 10:15:40;;;;;;;5.30;2.20;;;22.40;75.30;;;22.90;53.66;101278.91;4968105;28;20838;-78
2022/07/06 10:18:09;;;;;;;5.47;2.13;;;22.60;74.70;;;23.01;53.37;101275.53;4984894;28;20077;-78
2022/07/06 10:20:39;;;;;;;5.28;2.10;;;22.60;74.40;;;23.14;53.14;101281.88;4984903;28;20038;-78
2022/07/06 10:23:09;;;;;;;4.32;2.15;;;22.70;74.40;;;23.29;52.76;101276.53;4973267;28;20053;-79